Time;durP1;ratioP1;P1;durP2;ratioP2;P2;SDS_P1;SDS_P2;PMS_P1;PMS_P2;Temp;Humidity;BMP_temperature;BMP_pressure;BME280_temperature;BME280_humidity;BME280_pressure;Samples;Min_cycle;Max_cycle;Signal;HPM_P1;HPM_P2
2022/12/17 13:06:55;;;;;;;15.93;10.73;;;4.00;76.60;;;;;;5075607;28;20436;-75
2022/12/17 13:09:32;;;;;;;16.30;11.18;;;4.00;76.60;;;;;;5076668;28;20042;-76
2022/12/17 13:12:03;;;;;;;15.57;10.40;;;4.00;76.60;;;;;;5077316;28;20071;-75
2022/12/17 13:14:49;;;;;;;17.65;11.88;;;4.00;76.60;;;;;;5075485;28;20033;-75
2022/12/17 13:17:15;;;;;;;17.73;11.57;;;4.00;76.60;;;;;;5076642;28;20028;-75
2022/12/17 13:19:57;;;;;;;19.55;12.82;;;4.10;76.60;;;;;;5075145;28;20032;-75
2022/12/17 13:22:23;;;;;;;18.05;12.25;;;4.10;76.60;;;;;;5076106;28;20078;-75
2022/12/17 13:24:54;;;;;;;17.95;12.38;;;4.10;76.50;;;;;;5077069;28;20075;-75
2022/12/17 13:27:35;;;;;;;20.30;12.70;;;4.10;76.60;;;;;;5041720;28;20029;-75
2022/12/17 13:30:30;;;;;;;16.17;11.45;;;4.10;76.50;;;;;;5076441;28;20082;-75
2022/12/17 13:33:29;;;;;;;19.65;12.93;;;4.10;76.50;;;;;;5040897;28;20397;-75
2022/12/17 13:36:16;;;;;;;18.90;12.40;;;4.10;76.50;;;;;;5058001;28;20036;-74
2022/12/17 13:38:44;;;;;;;18.60;12.32;;;4.10;76.50;;;;;;5075044;28;20115;-76
2022/12/17 13:41:18;;;;;;;20.08;13.10;;;4.10;76.50;;;;;;5074774;28;20024;-75
2022/12/17 13:43:51;;;;;;;20.38;13.00;;;4.10;76.50;;;;;;5075857;28;20033;-75
2022/12/17 13:46:25;;;;;;;17.85;12.32;;;4.10;76.50;;;;;;5041501;28;20138;-75
2022/12/17 13:49:03;;;;;;;17.75;12.18;;;4.10;76.40;;;;;;5075819;28;20039;-75
2022/12/17 13:51:31;;;;;;;20.63;13.13;;;4.10;76.50;;;;;;5058008;28;20026;-75
2022/12/17 13:54:02;;;;;;;22.30;14.18;;;4.10;76.40;;;;;;5057872;28;20105;-74
2022/12/17 13:56:36;;;;;;;18.67;12.68;;;4.20;76.50;;;;;;5058108;28;20095;-75
2022/12/17 13:59:03;;;;;;;20.27;13.73;;;4.20;76.60;;;;;;5075760;28;20020;-76
2022/12/17 14:01:30;;;;;;;19.73;12.95;;;4.20;76.50;;;;;;5074660;28;20028;-76
2022/12/17 14:03:59;;;;;;;21.05;13.20;;;4.20;76.50;;;;;;5075776;28;20025;-74
2022/12/17 14:06:31;;;;;;;20.15;13.13;;;4.20;76.50;;;;;;5057631;28;20032;-76
2022/12/17 14:08:57;;;;;;;21.05;12.85;;;4.20;76.50;;;;;;5058141;28;20032;-75
2022/12/17 14:14:29;;;;;;;21.80;14.63;;;4.20;76.50;;;;;;5073255;28;20036;-77
2022/12/17 14:16:55;;;;;;;18.63;12.25;;;4.20;76.40;;;;;;5073901;28;20444;-75
2022/12/17 14:19:22;;;;;;;18.88;13.25;;;4.20;76.40;;;;;;5074632;28;20020;-76
2022/12/17 14:21:49;;;;;;;20.00;13.70;;;4.20;76.40;;;;;;5074577;28;20118;-75
2022/12/17 14:24:17;;;;;;;18.73;12.82;;;4.20;76.40;;;;;;5040553;28;20400;-75
2022/12/17 14:26:50;;;;;;;18.80;12.10;;;4.20;76.50;;;;;;5056893;28;20113;-75
2022/12/17 14:29:22;;;;;;;20.50;13.45;;;4.20;76.40;;;;;;5074686;28;20033;-76
2022/12/17 14:31:56;;;;;;;19.95;12.52;;;4.20;76.40;;;;;;5073465;28;20028;-76
2022/12/17 14:34:23;;;;;;;21.13;13.35;;;4.20;76.40;;;;;;5074733;28;20033;-76
2022/12/17 14:37:02;;;;;;;20.83;13.68;;;4.20;76.40;;;;;;5040545;28;20034;-76
2022/12/17 14:39:30;;;;;;;19.45;12.73;;;4.20;76.40;;;;;;5074455;28;20093;-74
2022/12/17 14:45:14;;;;;;;20.00;12.57;;;4.20;77.00;;;;;;5073791;28;20025;-75
2022/12/17 14:47:52;;;;;;;21.50;13.30;;;4.20;76.40;;;;;;5055966;28;20097;-74
2022/12/17 14:50:18;;;;;;;18.55;12.35;;;4.20;76.40;;;;;;5057114;28;20078;-75
2022/12/17 14:52:49;;;;;;;21.77;13.65;;;4.10;76.30;;;;;;5073254;28;20024;-76
2022/12/17 14:55:35;;;;;;;20.60;13.63;;;4.10;76.40;;;;;;5055944;28;20032;-75
2022/12/17 14:58:14;;;;;;;19.85;12.70;;;4.20;76.40;;;;;;5072807;28;20491;-75
2022/12/17 15:00:43;;;;;;;20.65;12.82;;;4.10;76.30;;;;;;5072836;28;20087;-76
2022/12/17 15:03:26;;;;;;;20.20;12.13;;;4.10;76.30;;;;;;5073796;28;20031;-75
2022/12/17 15:05:56;;;;;;;17.05;11.27;;;4.10;76.30;;;;;;5039432;28;20037;-76
2022/12/17 15:08:22;;;;;;;20.05;13.35;;;4.10;76.30;;;;;;5073356;28;20029;-75
2022/12/17 15:10:47;;;;;;;19.67;12.90;;;4.10;76.30;;;;;;5072398;28;20112;-75
2022/12/17 15:13:13;;;;;;;20.45;13.77;;;4.10;76.30;;;;;;5039580;28;20032;-75
2022/12/17 15:15:39;;;;;;;20.65;13.55;;;4.10;76.20;;;;;;5072795;28;20426;-75
2022/12/17 15:18:05;;;;;;;18.73;12.20;;;4.10;76.20;;;;;;5056581;28;20026;-73
2022/12/17 15:20:30;;;;;;;20.63;12.75;;;4.10;76.20;;;;;;5056189;28;20085;-75
2022/12/17 15:22:56;;;;;;;19.10;13.07;;;4.10;76.10;;;;;;5055816;28;20052;-75
2022/12/17 15:25:22;;;;;;;18.50;12.05;;;4.10;76.20;;;;;;5073983;28;20096;-75
2022/12/17 15:27:48;;;;;;;18.92;12.27;;;4.20;76.20;;;;;;5055732;28;20039;-76
2022/12/17 15:30:16;;;;;;;19.30;12.80;;;4.10;76.10;;;;;;5039238;28;20125;-74
2022/12/17 15:32:42;;;;;;;18.88;12.07;;;4.10;76.20;;;;;;5073814;28;20107;-75
2022/12/17 15:35:09;;;;;;;18.63;12.07;;;4.10;76.10;;;;;;5072825;28;20040;-75
2022/12/17 15:37:34;;;;;;;20.85;12.88;;;4.10;76.20;;;;;;5072185;28;20472;-75
2022/12/17 15:40:01;;;;;;;19.70;12.80;;;4.10;76.20;;;;;;5039005;28;20123;-75
2022/12/17 15:45:10;;;;;;;18.80;12.02;;;4.10;76.20;;;;;;5073144;28;20035;-75
2022/12/17 15:47:36;;;;;;;17.98;12.60;;;4.10;76.20;;;;;;5072616;28;20029;-75
2022/12/17 15:50:03;;;;;;;20.00;13.10;;;4.10;76.20;;;;;;5073037;28;20027;-75
2022/12/17 15:52:29;;;;;;;22.15;14.13;;;4.10;76.20;;;;;;5055761;28;20021;-75
2022/12/17 15:54:55;;;;;;;21.55;13.32;;;4.10;76.20;;;;;;5073069;28;20045;-75
2022/12/17 15:57:21;;;;;;;21.08;14.30;;;4.10;76.20;;;;;;5073575;28;20395;-75
2022/12/17 15:59:46;;;;;;;20.10;13.50;;;4.00;76.20;;;;;;5055130;28;20029;-75
2022/12/17 16:02:12;;;;;;;20.67;13.30;;;4.00;76.20;;;;;;5055144;28;20048;-75
2022/12/17 16:04:38;;;;;;;19.15;13.05;;;4.00;76.20;;;;;;5071765;28;20094;-75
2022/12/17 16:07:04;;;;;;;20.60;13.23;;;4.00;76.20;;;;;;5073129;28;20060;-75
2022/12/17 16:09:30;;;;;;;20.85;12.93;;;4.00;76.20;;;;;;5055505;28;20028;-75
2022/12/17 16:11:56;;;;;;;20.65;13.55;;;4.00;76.20;;;;;;5071404;28;20043;-76
2022/12/17 16:14:23;;;;;;;19.08;12.27;;;4.00;76.20;;;;;;5055158;28;20056;-75
2022/12/17 16:16:49;;;;;;;20.35;13.30;;;4.00;76.20;;;;;;5055653;28;20509;-75
2022/12/17 16:19:15;;;;;;;21.20;13.85;;;4.00;76.20;;;;;;5071872;28;20050;-76
2022/12/17 16:21:41;;;;;;;17.80;12.65;;;4.00;76.20;;;;;;5055081;28;20025;-74
2022/12/17 16:24:07;;;;;;;19.13;12.95;;;4.00;76.20;;;;;;5071712;28;20043;-75
2022/12/17 16:26:33;;;;;;;20.38;13.60;;;3.90;76.20;;;;;;5072164;28;20041;-75
2022/12/17 16:28:58;;;;;;;20.42;13.85;;;3.90;76.20;;;;;;5055163;28;20071;-75
2022/12/17 16:31:24;;;;;;;22.92;14.05;;;3.90;76.20;;;;;;5055034;28;20381;-75
2022/12/17 16:33:50;;;;;;;22.30;13.77;;;3.90;76.20;;;;;;5038593;28;20033;-75
2022/12/17 16:36:19;;;;;;;17.65;12.25;;;3.90;76.20;;;;;;5054845;28;20036;-77
2022/12/17 16:38:47;;;;;;;20.48;14.00;;;3.90;76.30;;;;;;5072774;28;20029;-75
2022/12/17 16:41:14;;;;;;;19.30;13.23;;;3.90;76.20;;;;;;5054623;28;20078;-76
2022/12/17 16:43:40;;;;;;;21.00;13.02;;;3.90;76.20;;;;;;5072747;28;20120;-76
2022/12/17 16:46:24;;;;;;;21.23;13.55;;;3.80;76.20;;;;;;5055329;28;20032;-76
2022/12/17 16:48:49;;;;;;;20.90;14.50;;;3.90;76.20;;;;;;5073100;28;20497;-83
2022/12/17 16:51:17;;;;;;;22.90;16.23;;;3.90;76.20;;;;;;5073160;28;20063;-78
2022/12/17 16:53:43;;;;;;;20.27;14.20;;;3.90;76.10;;;;;;5038650;28;20036;-79
2022/12/17 16:56:22;;;;;;;22.77;15.70;;;3.80;76.00;;;;;;5071889;28;20067;-77
2022/12/17 16:58:48;;;;;;;20.88;14.05;;;3.80;75.90;;;;;;5054906;28;20036;-77
2022/12/17 17:01:22;;;;;;;18.85;13.07;;;3.80;75.80;;;;;;5055445;28;20515;-77
2022/12/17 17:03:49;;;;;;;22.05;14.27;;;3.80;75.80;;;;;;5073521;28;20535;-77
2022/12/17 17:06:15;;;;;;;20.15;13.43;;;3.80;75.80;;;;;;5055151;28;20039;-77
2022/12/17 17:08:41;;;;;;;22.02;14.13;;;3.80;75.80;;;;;;5038415;28;20037;-77
2022/12/17 17:11:22;;;;;;;21.13;14.48;;;3.70;75.70;;;;;;5038466;28;20404;-75
2022/12/17 17:13:55;;;;;;;20.45;13.43;;;3.80;75.70;;;;;;5055456;28;20040;-75
2022/12/17 17:16:22;;;;;;;20.00;13.45;;;3.80;75.70;;;;;;5054998;28;20032;-76
2022/12/17 17:18:49;;;;;;;20.52;15.23;;;3.70;75.60;;;;;;5038738;28;20107;-75
2022/12/17 17:21:17;;;;;;;22.15;16.00;;;3.70;75.70;;;;;;5054625;28;20377;-75
2022/12/17 17:23:48;;;;;;;21.05;14.13;;;3.70;75.70;;;;;;5073430;28;20049;-76
2022/12/17 17:26:14;;;;;;;21.90;15.25;;;3.70;75.70;;;;;;5058430;28;20024;-76
2022/12/17 17:28:40;;;;;;;19.73;14.57;;;3.70;75.80;;;;;;5058108;28;20203;-76
2022/12/17 17:31:10;;;;;;;22.63;15.38;;;3.70;75.70;;;;;;5042491;28;20024;-78
2022/12/17 17:33:38;;;;;;;20.65;14.15;;;3.70;75.80;;;;;;5075291;28;20025;-78
2022/12/17 17:36:12;;;;;;;21.75;15.18;;;3.60;75.70;;;;;;5076106;28;20107;-77
2022/12/17 17:38:39;;;;;;;22.25;14.48;;;3.60;75.80;;;;;;5058466;28;20123;-78
2022/12/17 17:41:06;;;;;;;23.40;15.02;;;3.60;75.80;;;;;;5058589;28;20036;-77
2022/12/17 17:43:32;;;;;;;20.10;13.30;;;3.60;75.80;;;;;;5076529;28;20039;-77
2022/12/17 17:46:15;;;;;;;22.08;14.13;;;3.60;75.80;;;;;;5041919;28;20035;-77
2022/12/17 17:48:42;;;;;;;21.92;14.32;;;3.60;75.80;;;;;;5058449;28;20098;-77
2022/12/17 17:51:14;;;;;;;18.15;13.13;;;3.60;75.80;;;;;;5042297;28;20035;-77
2022/12/17 17:53:41;;;;;;;20.33;13.70;;;3.60;75.80;;;;;;5075806;28;20025;-78
2022/12/17 17:56:15;;;;;;;20.77;13.88;;;3.50;75.80;;;;;;5057974;28;20024;-77
2022/12/17 17:58:43;;;;;;;19.03;12.83;;;3.60;75.90;;;;;;5075929;28;20077;-78
2022/12/17 18:01:10;;;;;;;17.95;12.65;;;3.50;75.80;;;;;;5058353;28;20266;-77
2022/12/17 18:03:37;;;;;;;20.38;13.60;;;3.50;75.80;;;;;;5074887;28;20029;-77
2022/12/17 18:06:05;;;;;;;20.55;13.93;;;3.50;75.80;;;;;;5058969;28;20024;-78
2022/12/17 18:08:32;;;;;;;19.60;13.50;;;3.50;75.90;;;;;;5058097;28;20497;-78
2022/12/17 18:10:58;;;;;;;18.25;12.68;;;3.50;75.80;;;;;;5074289;28;20051;-77
2022/12/17 18:16:10;;;;;;;20.73;13.07;;;3.50;75.90;;;;;;5075906;28;20036;-77
2022/12/17 18:18:36;;;;;;;16.83;12.77;;;3.50;75.90;;;;;;5075417;28;20036;-76
2022/12/17 18:21:08;;;;;;;19.30;12.68;;;3.50;75.90;;;;;;5041213;28;20033;-80
2022/12/17 18:23:34;;;;;;;18.60;12.85;;;3.50;75.90;;;;;;5075778;28;20078;-77
2022/12/17 18:26:15;;;;;;;19.10;12.07;;;3.40;75.90;;;;;;5075330;28;20032;-77
2022/12/17 18:28:42;;;;;;;17.08;11.52;;;3.40;75.90;;;;;;5057391;28;20055;-78
2022/12/17 18:31:16;;;;;;;16.80;11.65;;;3.40;75.90;;;;;;5057351;28;20115;-79
2022/12/17 18:33:45;;;;;;;17.98;11.90;;;3.40;76.60;;;;;;5057133;28;20111;-77
2022/12/17 18:36:26;;;;;;;17.40;11.60;;;3.40;75.90;;;;;;5057011;28;20051;-77
2022/12/17 18:39:02;;;;;;;18.70;12.35;;;3.40;76.00;;;;;;5041517;28;20056;-75
2022/12/17 18:44:13;;;;;;;18.83;12.65;;;3.30;75.90;;;;;;5074694;28;20029;-79
2022/12/17 18:46:39;;;;;;;19.25;11.93;;;3.30;75.90;;;;;;5073777;28;20016;-76
2022/12/17 18:49:07;;;;;;;18.67;12.13;;;3.30;76.00;;;;;;5074407;28;20032;-77
2022/12/17 18:51:36;;;;;;;17.52;11.95;;;3.30;76.00;;;;;;5073298;28;20052;-77
2022/12/17 18:54:05;;;;;;;18.40;12.70;;;3.30;76.00;;;;;;5040760;28;20349;-78
2022/12/17 18:56:31;;;;;;;17.55;12.07;;;3.30;76.00;;;;;;5056547;28;20067;-76
2022/12/17 18:58:57;;;;;;;15.80;10.95;;;3.30;76.00;;;;;;5056489;28;20031;-76
2022/12/17 19:01:26;;;;;;;16.95;11.88;;;3.30;76.00;;;;;;5072681;28;20037;-77
2022/12/17 19:03:52;;;;;;;17.65;12.70;;;3.30;76.00;;;;;;5072737;28;20074;-78
2022/12/17 19:06:19;;;;;;;18.77;12.25;;;3.30;76.00;;;;;;5072228;28;20041;-78
2022/12/17 19:08:45;;;;;;;16.45;11.07;;;3.20;75.90;;;;;;5056233;28;20020;-78
2022/12/17 19:11:15;;;;;;;16.70;12.27;;;3.20;75.90;;;;;;5056259;28;20374;-77
2022/12/17 19:13:42;;;;;;;17.50;11.40;;;3.20;75.90;;;;;;5073869;28;20070;-77
2022/12/17 19:16:13;;;;;;;15.98;11.43;;;3.20;75.90;;;;;;5039719;28;20496;-77
2022/12/17 19:18:39;;;;;;;17.38;11.32;;;3.20;75.90;;;;;;5073167;28;20033;-77
2022/12/17 19:21:07;;;;;;;18.13;11.85;;;3.20;76.00;;;;;;5056256;28;20419;-77
2022/12/17 19:23:33;;;;;;;18.00;11.77;;;3.20;75.90;;;;;;5056510;28;20044;-76
2022/12/17 19:26:29;;;;;;;18.63;12.07;;;3.20;76.00;;;;;;5072621;28;20060;-76
2022/12/17 19:28:56;;;;;;;17.60;11.93;;;3.20;76.00;;;;;;5023818;28;20102;-79
2022/12/17 19:31:24;;;;;;;18.05;11.38;;;3.10;75.90;;;;;;5056229;28;20028;-76
2022/12/17 19:33:58;;;;;;;17.88;11.20;;;3.20;76.00;;;;;;5072885;28;20127;-77
2022/12/17 19:36:25;;;;;;;17.10;11.43;;;3.10;75.90;;;;;;5072617;28;20055;-77
2022/12/17 19:38:56;;;;;;;17.70;11.63;;;3.10;75.90;;;;;;5056520;28;20062;-76
2022/12/17 19:41:23;;;;;;;18.80;12.43;;;3.10;75.90;;;;;;5056857;28;20086;-77
2022/12/17 19:43:54;;;;;;;17.55;11.77;;;3.10;76.00;;;;;;5055855;28;20025;-76
2022/12/17 19:46:20;;;;;;;16.92;11.02;;;3.10;76.00;;;;;;5039166;28;20123;-77
2022/12/17 19:48:47;;;;;;;16.05;11.20;;;3.10;75.90;;;;;;5055889;28;20372;-78
2022/12/17 19:51:15;;;;;;;17.13;11.10;;;3.10;76.00;;;;;;5055611;28;20028;-77
2022/12/17 19:53:43;;;;;;;16.98;11.50;;;3.10;75.90;;;;;;5055475;28;20025;-77
2022/12/17 19:56:15;;;;;;;17.45;10.98;;;3.00;75.90;;;;;;5055411;28;20033;-80
2022/12/17 19:58:42;;;;;;;15.65;10.35;;;3.00;75.90;;;;;;5055891;28;20039;-78
2022/12/17 20:01:10;;;;;;;18.00;10.98;;;3.00;75.90;;;;;;5056759;28;20021;-77
2022/12/17 20:03:36;;;;;;;16.90;11.18;;;3.00;75.90;;;;;;5055552;28;20032;-80
2022/12/17 20:06:03;;;;;;;16.05;10.75;;;3.00;76.00;;;;;;5073193;28;20465;-77
2022/12/17 20:08:29;;;;;;;15.55;11.18;;;3.00;75.90;;;;;;5038485;28;20090;-78
2022/12/17 20:10:55;;;;;;;16.83;10.80;;;3.00;75.90;;;;;;5055658;28;20055;-77
2022/12/17 20:13:21;;;;;;;16.98;11.07;;;3.00;75.90;;;;;;5056017;28;20048;-78
2022/12/17 20:15:47;;;;;;;17.55;11.15;;;2.90;75.90;;;;;;5055146;28;20032;-76
2022/12/17 20:18:13;;;;;;;17.02;10.60;;;2.90;75.90;;;;;;5055443;28;20024;-77
2022/12/17 20:20:39;;;;;;;15.90;10.85;;;2.90;75.90;;;;;;5055345;28;20035;-77
2022/12/17 20:23:06;;;;;;;17.63;12.05;;;2.90;75.90;;;;;;5072019;28;20056;-77
2022/12/17 20:25:32;;;;;;;17.17;10.93;;;2.90;75.90;;;;;;5055056;28;20036;-77
2022/12/17 20:27:57;;;;;;;16.80;11.63;;;2.90;75.90;;;;;;5055898;28;20028;-78
2022/12/17 20:30:24;;;;;;;17.48;11.45;;;2.90;75.90;;;;;;5072821;28;20067;-79
2022/12/17 20:32:52;;;;;;;16.75;11.00;;;2.90;75.90;;;;;;5073262;28;20154;-79
2022/12/17 20:35:19;;;;;;;17.58;11.65;;;2.80;75.90;;;;;;5055658;28;20055;-77
2022/12/17 20:37:45;;;;;;;16.95;11.18;;;2.80;75.90;;;;;;5072761;28;20476;-79
2022/12/17 20:40:10;;;;;;;18.23;11.63;;;2.90;76.00;;;;;;5039033;28;20032;-78
2022/12/17 20:42:36;;;;;;;19.10;12.35;;;2.80;75.90;;;;;;5039268;28;20137;-78
2022/12/17 20:45:02;;;;;;;20.67;12.00;;;2.80;75.90;;;;;;5072463;28;20450;-78
2022/12/17 20:47:28;;;;;;;17.45;11.30;;;2.80;75.90;;;;;;5039940;28;20476;-78
2022/12/17 20:49:54;;;;;;;18.83;12.40;;;2.80;75.90;;;;;;5038907;28;20025;-78
2022/12/17 20:52:20;;;;;;;16.75;10.98;;;2.80;75.90;;;;;;5055232;28;20222;-78
2022/12/17 20:54:45;;;;;;;16.13;10.70;;;2.70;75.90;;;;;;5071872;28;20037;-78
2022/12/17 20:57:11;;;;;;;17.65;10.85;;;2.80;76.00;;;;;;5071890;28;20162;-77
2022/12/17 20:59:37;;;;;;;18.02;11.90;;;2.70;75.90;;;;;;5076446;28;20541;-78
2022/12/17 21:02:02;;;;;;;17.02;11.60;;;2.80;76.00;;;;;;5059111;28;20025;-78
2022/12/17 21:04:28;;;;;;;17.90;11.40;;;2.70;75.90;;;;;;5059010;28;20056;-78
2022/12/17 21:06:54;;;;;;;18.55;11.95;;;2.70;75.90;;;;;;5059266;28;20538;-78
2022/12/17 21:09:21;;;;;;;17.67;11.90;;;2.70;75.90;;;;;;5077256;28;20082;-79
2022/12/17 21:11:47;;;;;;;16.67;11.00;;;2.70;75.90;;;;;;5058821;28;20504;-78
2022/12/17 21:14:16;;;;;;;18.52;12.23;;;2.70;75.90;;;;;;5077517;28;20032;-78
2022/12/17 21:16:43;;;;;;;17.77;11.43;;;2.60;76.00;;;;;;5058914;28;20458;-77
2022/12/17 21:19:12;;;;;;;18.58;12.25;;;2.60;75.90;;;;;;5075423;28;20114;-78
2022/12/17 21:21:38;;;;;;;19.45;11.80;;;2.60;75.90;;;;;;5059343;28;20031;-77
2022/12/17 21:24:05;;;;;;;17.55;11.52;;;2.60;75.90;;;;;;5075073;28;20388;-77
2022/12/17 21:26:34;;;;;;;18.88;12.00;;;2.60;75.90;;;;;;5076304;28;20037;-80
2022/12/17 21:29:01;;;;;;;16.70;10.80;;;2.60;75.90;;;;;;5076881;28;20103;-80
2022/12/17 21:31:34;;;;;;;16.60;11.68;;;2.60;75.90;;;;;;5075535;28;20032;-81
2022/12/17 21:34:02;;;;;;;19.38;12.25;;;2.60;75.90;;;;;;5058646;28;20082;-77
2022/12/17 21:36:29;;;;;;;19.50;11.95;;;2.60;75.90;;;;;;5076507;28;20028;-78
2022/12/17 21:38:56;;;;;;;18.85;11.95;;;2.60;76.00;;;;;;5076498;28;20025;-78
2022/12/17 21:41:25;;;;;;;19.77;12.38;;;2.60;76.60;;;;;;5076092;28;20425;-78
2022/12/17 21:43:56;;;;;;;19.27;12.25;;;2.50;75.90;;;;;;5058192;28;20039;-78
2022/12/17 21:46:22;;;;;;;20.02;12.13;;;2.50;75.90;;;;;;5075238;28;20038;-79
2022/12/17 21:48:48;;;;;;;20.60;11.95;;;2.60;75.90;;;;;;5057904;28;20028;-79
2022/12/17 21:51:14;;;;;;;19.02;11.88;;;2.50;75.80;;;;;;5058525;28;20111;-79
2022/12/17 21:53:42;;;;;;;19.10;11.38;;;2.50;75.80;;;;;;5075073;28;20074;-78
2022/12/17 21:56:16;;;;;;;19.55;13.13;;;2.50;75.80;;;;;;5074853;28;20385;-78
2022/12/17 21:58:43;;;;;;;21.23;12.70;;;2.50;75.90;;;;;;5076354;28;20037;-78
2022/12/17 22:01:12;;;;;;;19.00;11.88;;;2.50;75.90;;;;;;5076382;28;20263;-80
2022/12/17 22:03:38;;;;;;;18.55;12.45;;;2.50;75.90;;;;;;5075307;28;20481;-79
2022/12/17 22:06:15;;;;;;;20.42;12.82;;;2.50;75.80;;;;;;5074575;28;20540;-79
2022/12/17 22:08:42;;;;;;;19.48;12.40;;;2.50;75.90;;;;;;5075176;28;20461;-77
2022/12/17 22:11:19;;;;;;;18.75;11.73;;;2.50;75.90;;;;;;5073953;28;20477;-79
2022/12/17 22:14:01;;;;;;;17.65;12.25;;;2.40;76.50;;;;;;5042145;28;20028;-79
2022/12/17 22:16:33;;;;;;;19.83;12.75;;;2.40;75.80;;;;;;5074528;28;20131;-79
2022/12/17 22:19:01;;;;;;;19.75;11.80;;;2.40;75.80;;;;;;5075021;28;20029;-79
2022/12/17 22:21:26;;;;;;;20.33;13.23;;;2.40;75.90;;;;;;5074550;28;20027;-78
2022/12/17 22:23:52;;;;;;;20.40;13.48;;;2.40;75.80;;;;;;5074253;28;20056;-77
2022/12/17 22:26:19;;;;;;;18.67;13.05;;;2.40;75.80;;;;;;5057410;28;20044;-78
2022/12/17 22:28:47;;;;;;;21.48;13.38;;;2.40;75.90;;;;;;5074267;28;20433;-78
2022/12/17 22:33:58;;;;;;;22.17;13.05;;;2.40;75.90;;;;;;5074259;28;20086;-78
2022/12/17 22:36:27;;;;;;;23.58;13.18;;;2.30;75.80;;;;;;5057457;28;20036;-78
2022/12/17 22:38:53;;;;;;;20.33;13.00;;;2.30;75.90;;;;;;5057677;28;20114;-78
2022/12/17 22:44:03;;;;;;;21.55;13.15;;;2.20;75.80;;;;;;5058224;28;20058;-78
2022/12/17 22:46:30;;;;;;;18.90;12.07;;;2.30;75.90;;;;;;5041430;28;20041;-78
2022/12/17 22:48:57;;;;;;;19.48;12.50;;;2.20;75.80;;;;;;5057613;28;20028;-78
2022/12/17 22:51:24;;;;;;;21.00;13.32;;;2.30;75.90;;;;;;5056923;28;20028;-77
2022/12/17 22:53:50;;;;;;;22.13;13.35;;;2.20;75.90;;;;;;5040670;28;20169;-80
2022/12/17 22:56:17;;;;;;;21.92;13.38;;;2.20;75.90;;;;;;5074067;28;20040;-78
2022/12/17 22:58:43;;;;;;;20.88;14.27;;;2.20;76.50;;;;;;5073518;28;20028;-78
2022/12/17 23:01:08;;;;;;;20.98;12.85;;;2.10;75.80;;;;;;5057111;28;20466;-77
2022/12/17 23:03:34;;;;;;;23.00;14.48;;;2.20;75.90;;;;;;5073608;28;20397;-78
2022/12/17 23:06:11;;;;;;;22.13;13.95;;;2.10;75.80;;;;;;5057121;28;20051;-78
2022/12/17 23:08:37;;;;;;;21.42;12.90;;;2.10;75.90;;;;;;5074024;28;20082;-77
2022/12/17 23:11:13;;;;;;;22.33;13.55;;;2.10;75.90;;;;;;5073293;28;20036;-78
2022/12/17 23:13:39;;;;;;;21.00;13.38;;;2.10;75.90;;;;;;5073962;28;20134;-78
2022/12/17 23:16:06;;;;;;;23.10;13.57;;;2.00;75.80;;;;;;5074330;28;20488;-78
2022/12/17 23:18:32;;;;;;;21.42;13.45;;;2.00;75.90;;;;;;5056665;28;20116;-78
2022/12/17 23:21:20;;;;;;;20.98;13.77;;;2.00;75.80;;;;;;5039815;28;20477;-79
2022/12/17 23:23:46;;;;;;;23.00;15.25;;;2.00;75.80;;;;;;5073161;28;20084;-78
2022/12/17 23:26:21;;;;;;;21.30;13.32;;;2.00;75.80;;;;;;5073931;28;20066;-78
2022/12/17 23:28:51;;;;;;;21.02;13.25;;;1.90;75.80;;;;;;5056813;28;20037;-78
2022/12/17 23:31:19;;;;;;;20.90;13.25;;;1.90;75.80;;;;;;5073107;28;20047;-78
2022/12/17 23:33:46;;;;;;;20.13;12.68;;;1.90;75.90;;;;;;5073155;28;20032;-77
2022/12/17 23:36:17;;;;;;;22.23;14.15;;;1.90;75.90;;;;;;5056467;28;20062;-78
2022/12/17 23:38:43;;;;;;;21.83;14.18;;;1.90;75.80;;;;;;5057069;28;20418;-79
2022/12/17 23:41:15;;;;;;;20.05;13.60;;;1.80;75.90;;;;;;5074413;28;20028;-79
2022/12/17 23:43:41;;;;;;;22.65;14.43;;;1.80;75.90;;;;;;5075164;28;20077;-79
2022/12/17 23:46:08;;;;;;;22.50;14.27;;;1.80;75.90;;;;;;5073046;28;20479;-79
2022/12/17 23:48:36;;;;;;;22.33;14.30;;;1.80;76.50;;;;;;5055641;28;20054;-78
2022/12/17 23:51:03;;;;;;;21.15;14.35;;;1.80;75.90;;;;;;5056285;28;20075;-78
2022/12/17 23:53:30;;;;;;;22.00;14.25;;;1.70;75.80;;;;;;5056142;28;20020;-80
2022/12/17 23:56:08;;;;;;;21.90;13.55;;;1.70;75.80;;;;;;5039750;28;20121;-81
2022/12/17 23:58:35;;;;;;;21.33;13.18;;;1.70;75.90;;;;;;5055959;28;20449;-78
